Time;durP1;ratioP1;P1;durP2;ratioP2;P2;SDS_P1;SDS_P2;PMS_P1;PMS_P2;Temp;Humidity;BMP_temperature;BMP_pressure;BME280_temperature;BME280_humidity;BME280_pressure;Samples;Min_cycle;Max_cycle;Signal;HPM_P1;HPM_P2
2024/04/06 00:00:22;;;;;;;2.43;1.80;;;18.20;34.10;;;;;;5007917;28;20588;-65
2024/04/06 00:02:47;;;;;;;1.80;1.70;;;18.20;34.10;;;;;;4999616;28;20232;-65
2024/04/06 00:05:14;;;;;;;2.63;1.90;;;18.20;34.10;;;;;;4999868;28;20575;-65
2024/04/06 00:07:40;;;;;;;1.80;1.70;;;18.20;34.10;;;;;;5010283;28;20273;-63
2024/04/06 00:10:07;;;;;;;2.87;1.97;;;18.20;34.20;;;;;;5005040;28;20218;-65
2024/04/06 00:12:32;;;;;;;1.93;1.80;;;18.10;34.20;;;;;;5010526;28;20223;-65
2024/04/06 00:14:59;;;;;;;2.33;1.83;;;18.10;34.40;;;;;;5010924;28;20577;-65
2024/04/06 00:20:01;;;;;;;2.30;1.77;;;18.10;34.20;;;;;;5097296;22;20379;-65
2024/04/06 00:22:28;;;;;;;4.37;2.20;;;18.10;34.10;;;;;;5022863;28;20222;-65
2024/04/06 00:24:55;;;;;;;2.23;1.90;;;18.10;34.20;;;;;;5016748;28;20284;-65
2024/04/06 00:27:23;;;;;;;3.47;2.50;;;18.10;34.10;;;;;;5031097;28;20209;-65
2024/04/06 00:29:50;;;;;;;4.03;2.20;;;18.10;34.30;;;;;;5015440;28;20223;-65
2024/04/06 00:32:16;;;;;;;3.03;1.97;;;18.10;34.20;;;;;;5022196;28;20220;-65
2024/04/06 00:34:42;;;;;;;4.57;2.20;;;18.10;34.50;;;;;;5027218;28;20198;-64
2024/04/06 00:37:08;;;;;;;2.90;2.20;;;18.10;34.40;;;;;;5019551;28;20251;-65
2024/04/06 00:39:34;;;;;;;2.87;2.17;;;18.10;34.20;;;;;;5022873;28;20204;-65
2024/04/06 00:42:00;;;;;;;2.20;2.00;;;18.10;35.10;;;;;;5020543;28;20230;-65
2024/04/06 00:44:27;;;;;;;3.97;2.17;;;17.90;36.30;;;;;;5019039;28;20588;-65
2024/04/06 00:46:53;;;;;;;3.03;2.07;;;17.90;35.80;;;;;;5021737;28;20221;-65
2024/04/06 00:49:19;;;;;;;3.30;2.30;;;17.80;36.70;;;;;;5022787;28;20230;-65
2024/04/06 00:51:45;;;;;;;3.00;2.10;;;17.80;35.40;;;;;;5022384;28;20218;-66
2024/04/06 00:54:12;;;;;;;3.43;2.20;;;17.90;35.20;;;;;;5022728;28;20703;-65
2024/04/06 00:56:37;;;;;;;5.00;2.60;;;17.90;35.00;;;;;;5018103;28;22832;-65
2024/04/06 00:59:04;;;;;;;2.77;2.00;;;17.90;35.10;;;;;;5025733;28;20688;-65
2024/04/06 01:01:29;;;;;;;2.93;2.10;;;17.90;35.00;;;;;;5026565;28;20218;-65
2024/04/06 01:03:56;;;;;;;2.17;1.93;;;18.00;35.10;;;;;;5023180;28;20216;-65
2024/04/06 01:06:21;;;;;;;2.83;2.17;;;17.90;35.00;;;;;;5031449;28;20218;-65
2024/04/06 01:08:48;;;;;;;2.10;1.90;;;17.90;35.10;;;;;;5008334;28;20233;-64
2024/04/06 01:11:14;;;;;;;2.23;1.97;;;17.90;35.20;;;;;;5022293;28;20208;-65
2024/04/06 01:13:41;;;;;;;1.90;1.80;;;17.90;35.10;;;;;;5025278;28;20218;-65
2024/04/06 01:16:06;;;;;;;3.43;2.03;;;17.90;35.10;;;;;;5026098;28;20234;-65
2024/04/06 01:18:33;;;;;;;1.90;1.80;;;17.90;35.30;;;;;;5032195;28;20671;-64
2024/04/06 01:21:00;;;;;;;2.40;1.90;;;17.90;35.20;;;;;;5020119;28;20225;-66
2024/04/06 01:23:27;;;;;;;2.87;1.70;;;17.80;35.10;;;;;;5026929;28;20280;-65
2024/04/06 01:25:53;;;;;;;2.57;1.90;;;17.80;35.20;;;;;;5026038;28;20587;-65
2024/04/06 01:28:19;;;;;;;2.20;2.00;;;17.80;35.30;;;;;;5025848;28;20223;-65
2024/04/06 01:30:45;;;;;;;1.87;1.70;;;17.80;35.60;;;;;;5021998;28;20261;-65
2024/04/06 01:33:11;;;;;;;3.07;1.70;;;17.80;35.40;;;;;;5023222;28;20235;-64
2024/04/06 01:35:37;;;;;;;2.40;1.90;;;17.80;35.50;;;;;;5022552;28;20685;-65
2024/04/06 01:38:04;;;;;;;2.17;1.97;;;17.70;35.60;;;;;;5024315;28;20198;-65
2024/04/06 01:40:29;;;;;;;3.47;1.97;;;17.70;35.70;;;;;;5031762;28;20692;-65
2024/04/06 01:42:56;;;;;;;2.37;1.70;;;17.70;35.70;;;;;;5004223;28;20226;-65
2024/04/06 01:45:22;;;;;;;2.70;1.70;;;17.70;35.90;;;;;;5022182;28;20243;-65
2024/04/06 01:47:48;;;;;;;2.47;2.13;;;17.70;35.70;;;;;;5026141;28;20248;-65
2024/04/06 01:50:14;;;;;;;1.70;1.40;;;17.70;36.00;;;;;;5025412;28;20206;-65
2024/04/06 01:52:41;;;;;;;2.27;2.07;;;17.60;36.00;;;;;;5018549;28;20727;-65
2024/04/06 01:55:06;;;;;;;1.67;1.57;;;17.60;35.80;;;;;;5023132;28;20226;-65
2024/04/06 01:57:33;;;;;;;1.70;1.60;;;17.60;36.00;;;;;;5027829;28;20572;-65
2024/04/06 01:59:58;;;;;;;3.50;1.90;;;17.60;36.00;;;;;;5025515;28;20212;-65
2024/04/06 02:02:25;;;;;;;1.80;1.70;;;17.60;36.00;;;;;;5022188;28;20313;-64
2024/04/06 02:07:31;;;;;;;1.60;1.50;;;17.60;36.10;;;;;;5265486;22;20241;-63
2024/04/06 02:09:57;;;;;;;2.97;1.90;;;17.60;35.90;;;;;;5017089;28;20277;-65
2024/04/06 02:12:23;;;;;;;2.10;1.90;;;17.60;36.10;;;;;;5020841;28;20235;-66
2024/04/06 02:14:49;;;;;;;2.00;1.53;;;17.60;36.10;;;;;;5024631;28;20203;-65
2024/04/06 02:17:16;;;;;;;3.00;1.43;;;17.50;36.20;;;;;;5021683;28;20301;-66
2024/04/06 02:19:41;;;;;;;2.30;2.10;;;17.60;36.30;;;;;;5024122;28;20281;-65
2024/04/06 02:22:08;;;;;;;1.50;1.40;;;17.60;36.40;;;;;;5024599;28;20281;-64
2024/04/06 02:24:34;;;;;;;1.80;1.70;;;17.50;36.70;;;;;;5018597;28;20226;-64
2024/04/06 02:27:01;;;;;;;2.20;2.00;;;17.50;37.20;;;;;;5002396;28;20214;-65
2024/04/06 02:29:26;;;;;;;2.13;1.70;;;17.40;37.10;;;;;;5006842;28;20300;-65
2024/04/06 02:31:53;;;;;;;2.00;1.80;;;17.40;37.10;;;;;;5024631;28;20226;-65
2024/04/06 02:34:19;;;;;;;1.80;1.70;;;17.40;37.10;;;;;;5025052;28;20313;-66
2024/04/06 02:39:29;;;;;;;1.97;1.60;;;17.50;37.10;;;;;;5013435;28;20209;-65
2024/04/06 02:41:55;;;;;;;2.00;1.80;;;17.50;36.90;;;;;;5025789;28;20230;-65
2024/04/06 02:44:21;;;;;;;3.30;1.80;;;17.40;37.10;;;;;;5021509;28;20206;-65
2024/04/06 02:46:47;;;;;;;1.70;1.60;;;17.40;37.10;;;;;;5020184;28;20222;-65
2024/04/06 02:49:14;;;;;;;3.10;2.00;;;17.40;37.10;;;;;;5020683;28;20590;-62
2024/04/06 02:51:39;;;;;;;3.27;2.00;;;17.30;38.40;;;;;;5021550;28;20233;-65
2024/04/06 02:54:06;;;;;;;2.10;1.90;;;17.30;37.70;;;;;;5020770;28;20218;-64
2024/04/06 02:56:31;;;;;;;2.33;1.87;;;17.20;38.60;;;;;;5012251;28;20210;-66
2024/04/06 02:58:58;;;;;;;3.47;1.70;;;17.10;39.00;;;;;;5018191;28;20208;-64
2024/04/06 03:01:24;;;;;;;2.07;1.87;;;17.10;38.80;;;;;;5012329;28;20257;-66
2024/04/06 03:03:51;;;;;;;4.43;2.10;;;16.90;39.60;;;;;;5019005;28;20212;-65
2024/04/06 03:06:16;;;;;;;2.37;2.07;;;16.80;41.00;;;;;;5020667;28;20222;-65
2024/04/06 03:08:43;;;;;;;2.80;1.60;;;16.80;40.00;;;;;;5023146;28;20599;-65
2024/04/06 03:11:09;;;;;;;3.33;1.90;;;16.80;40.50;;;;;;5019747;28;20205;-64
2024/04/06 03:13:36;;;;;;;2.93;2.07;;;17.00;39.80;;;;;;5020065;28;20263;-65
2024/04/06 03:16:01;;;;;;;3.30;1.93;;;16.90;40.00;;;;;;5012265;28;20681;-65
2024/04/06 03:18:28;;;;;;;2.23;1.63;;;16.90;40.80;;;;;;5019329;28;20203;-65
2024/04/06 03:20:53;;;;;;;1.87;1.73;;;16.80;40.20;;;;;;5022606;28;20216;-65
2024/04/06 03:23:20;;;;;;;3.07;2.10;;;16.70;40.40;;;;;;5028780;28;20233;-64
2024/04/06 03:25:46;;;;;;;2.60;1.70;;;16.70;40.60;;;;;;4995121;28;20242;-65
2024/04/06 03:28:13;;;;;;;2.20;1.83;;;16.70;40.80;;;;;;5015804;28;20204;-65
2024/04/06 03:30:38;;;;;;;2.57;1.90;;;16.70;40.70;;;;;;5015023;28;20204;-65
2024/04/06 03:33:05;;;;;;;3.30;1.70;;;16.70;40.40;;;;;;5018994;28;20403;-65
2024/04/06 03:35:31;;;;;;;2.17;1.90;;;16.70;41.00;;;;;;5021730;28;20213;-64
2024/04/06 03:37:58;;;;;;;3.53;2.00;;;16.70;41.20;;;;;;5011561;28;20677;-65
2024/04/06 03:40:24;;;;;;;3.00;2.10;;;16.50;42.10;;;;;;5013939;28;20638;-65
2024/04/06 03:42:51;;;;;;;2.20;2.00;;;16.60;41.90;;;;;;5011881;28;20255;-64
2024/04/06 03:45:16;;;;;;;3.63;2.10;;;16.70;42.10;;;;;;5009837;28;20212;-65
2024/04/06 03:47:43;;;;;;;2.73;2.00;;;16.50;42.90;;;;;;5020361;28;20201;-65
2024/04/06 03:50:08;;;;;;;2.77;2.00;;;16.50;42.70;;;;;;5023916;28;20228;-65
2024/04/06 03:52:35;;;;;;;1.97;1.87;;;16.50;42.70;;;;;;5021432;28;20340;-66
2024/04/06 03:55:01;;;;;;;2.30;2.07;;;16.40;42.30;;;;;;5017563;28;20213;-65
2024/04/06 03:57:27;;;;;;;2.30;2.10;;;16.40;43.30;;;;;;5017384;28;20201;-67
2024/04/06 03:59:53;;;;;;;2.83;2.10;;;16.20;43.10;;;;;;5018813;28;20233;-65
2024/04/06 04:02:19;;;;;;;2.03;1.93;;;16.20;44.00;;;;;;5005112;28;20303;-65
2024/04/06 04:04:45;;;;;;;2.97;2.20;;;16.20;44.70;;;;;;5016427;28;20218;-65
2024/04/06 04:07:11;;;;;;;2.73;2.30;;;16.20;44.30;;;;;;5019778;28;20700;-64
2024/04/06 04:09:37;;;;;;;3.77;2.30;;;16.00;43.90;;;;;;5025468;28;20758;-64
2024/04/06 04:12:04;;;;;;;2.50;1.80;;;15.90;45.10;;;;;;5016878;28;20313;-63
2024/04/06 04:14:29;;;;;;;1.80;1.70;;;15.80;45.00;;;;;;5021579;28;20591;-64
2024/04/06 04:16:56;;;;;;;2.43;2.07;;;15.90;45.10;;;;;;5020332;28;20288;-64
2024/04/06 04:19:22;;;;;;;2.13;1.93;;;15.70;45.40;;;;;;5005534;28;20204;-64
2024/04/06 04:21:48;;;;;;;2.20;2.00;;;15.60;45.30;;;;;;5015987;28;20312;-65
2024/04/06 04:24:14;;;;;;;2.50;1.80;;;15.70;45.40;;;;;;5022935;28;20643;-65
2024/04/06 04:26:41;;;;;;;2.50;1.97;;;15.70;45.10;;;;;;5020483;28;20221;-65
2024/04/06 04:29:06;;;;;;;3.23;2.10;;;15.60;45.50;;;;;;5017230;28;20225;-64
2024/04/06 04:31:33;;;;;;;3.60;2.00;;;15.60;46.00;;;;;;5021061;28;20228;-65
2024/04/06 04:33:59;;;;;;;3.07;1.90;;;15.50;45.80;;;;;;5018307;28;20209;-65
2024/04/06 04:36:25;;;;;;;2.13;1.97;;;15.60;45.50;;;;;;5016860;28;20207;-65
2024/04/06 04:38:51;;;;;;;2.60;1.90;;;15.70;45.30;;;;;;5019783;28;20566;-66
2024/04/06 04:41:17;;;;;;;2.30;2.10;;;15.80;45.00;;;;;;5019589;28;20196;-65
2024/04/06 04:43:43;;;;;;;2.57;2.10;;;15.90;45.10;;;;;;5026731;28;20211;-65
2024/04/06 04:46:10;;;;;;;3.27;2.33;;;16.00;42.80;;;;;;5021729;28;20266;-65
2024/04/06 04:48:35;;;;;;;2.97;1.60;;;16.20;41.60;;;;;;5024821;28;20549;-65
2024/04/06 04:51:02;;;;;;;1.80;1.70;;;16.30;41.20;;;;;;5027046;28;20209;-64
2024/04/06 04:53:27;;;;;;;2.03;1.50;;;16.30;41.30;;;;;;5021254;28;20236;-65
2024/04/06 04:55:54;;;;;;;2.27;1.87;;;16.30;40.80;;;;;;5023195;28;20203;-65
2024/04/06 04:58:20;;;;;;;2.87;1.73;;;16.30;40.50;;;;;;5019608;28;20297;-65
2024/04/06 05:00:46;;;;;;;1.60;1.50;;;16.40;40.40;;;;;;5024548;28;20642;-65
2024/04/06 05:03:12;;;;;;;2.47;1.90;;;16.30;40.20;;;;;;5014819;28;20723;-64
2024/04/06 05:05:39;;;;;;;1.90;1.80;;;16.40;39.70;;;;;;5023100;28;20297;-65
2024/04/06 05:08:04;;;;;;;2.07;1.80;;;16.50;39.80;;;;;;5019447;28;20230;-65
2024/04/06 05:10:31;;;;;;;1.77;1.67;;;16.50;39.80;;;;;;5027580;28;20222;-65
2024/04/06 05:12:56;;;;;;;3.23;1.87;;;16.50;39.60;;;;;;5006930;28;20261;-65
2024/04/06 05:15:23;;;;;;;3.23;1.80;;;16.50;39.50;;;;;;5009375;28;20677;-65
2024/04/06 05:17:48;;;;;;;2.10;1.97;;;16.50;39.20;;;;;;5024368;28;20208;-65
2024/04/06 05:20:15;;;;;;;2.90;1.63;;;16.60;39.10;;;;;;5024099;28;20211;-64
2024/04/06 05:22:41;;;;;;;1.77;1.60;;;16.50;39.20;;;;;;5022805;28;20228;-64
2024/04/06 05:25:07;;;;;;;1.60;1.50;;;16.50;39.20;;;;;;5014187;28;20228;-65
2024/04/06 05:27:33;;;;;;;2.93;1.93;;;16.50;39.00;;;;;;5014119;28;20214;-65
2024/04/06 05:30:00;;;;;;;2.40;1.50;;;16.40;39.20;;;;;;5006694;28;20232;-64
2024/04/06 05:32:25;;;;;;;1.77;1.67;;;16.30;39.40;;;;;;5020515;28;20785;-65
2024/04/06 05:34:52;;;;;;;1.90;1.73;;;16.30;39.90;;;;;;5011248;28;20213;-64
2024/04/06 05:37:17;;;;;;;2.83;1.90;;;16.40;39.50;;;;;;5013376;28;20302;-64
2024/04/06 05:39:44;;;;;;;2.23;1.80;;;16.40;39.30;;;;;;5018437;28;20199;-65
2024/04/06 05:44:55;;;;;;;2.50;1.80;;;16.40;39.00;;;;;;5334009;22;20256;-66
2024/04/06 05:47:20;;;;;;;3.03;1.73;;;16.50;39.00;;;;;;5024272;28;20706;-66
2024/04/06 05:49:47;;;;;;;2.17;1.73;;;16.50;38.90;;;;;;5026158;28;20233;-66
2024/04/06 05:52:13;;;;;;;2.37;1.63;;;16.50;38.60;;;;;;5028381;28;20233;-66
2024/04/06 05:54:41;;;;;;;2.70;1.73;;;16.50;38.60;;;;;;5029090;28;20552;-66
2024/04/06 05:57:07;;;;;;;2.40;1.90;;;16.60;38.30;;;;;;5020383;28;20214;-68
2024/04/06 05:59:34;;;;;;;1.73;1.63;;;16.70;38.30;;;;;;5026474;28;20295;-66
2024/04/06 06:01:59;;;;;;;1.90;1.70;;;16.70;38.00;;;;;;5029247;28;20625;-68
2024/04/06 06:04:26;;;;;;;2.00;1.80;;;16.70;37.70;;;;;;5029567;28;20292;-65
2024/04/06 06:06:51;;;;;;;2.47;1.80;;;16.70;37.70;;;;;;5025889;28;20712;-69
2024/04/06 06:09:18;;;;;;;3.03;1.60;;;16.70;37.60;;;;;;5026320;28;20226;-66
2024/04/06 06:11:46;;;;;;;2.20;1.70;;;16.90;37.70;;;;;;5032499;28;20885;-65
2024/04/06 06:14:13;;;;;;;3.30;1.80;;;16.90;36.90;;;;;;5032688;28;20212;-65
2024/04/06 06:16:38;;;;;;;3.23;1.70;;;17.00;36.80;;;;;;5016234;28;20657;-69
2024/04/06 06:19:05;;;;;;;2.30;1.77;;;17.20;36.90;;;;;;4999347;28;20602;-65
2024/04/06 06:21:30;;;;;;;1.67;1.57;;;17.40;37.10;;;;;;5037678;28;20228;-68
2024/04/06 06:23:57;;;;;;;4.23;2.00;;;17.60;36.90;;;;;;5028901;28;20202;-65
2024/04/06 06:26:23;;;;;;;1.90;1.70;;;17.60;36.90;;;;;;5016760;28;20215;-65
2024/04/06 06:28:49;;;;;;;3.73;1.80;;;17.70;36.80;;;;;;5021412;28;20734;-65
2024/04/06 06:31:15;;;;;;;3.40;1.83;;;17.80;35.60;;;;;;5026095;28;20297;-67
2024/04/06 06:33:42;;;;;;;1.70;1.60;;;18.00;35.40;;;;;;5024638;28;20743;-66
2024/04/06 06:36:08;;;;;;;2.00;1.80;;;18.10;35.70;;;;;;5026075;28;20741;-65
2024/04/06 06:38:34;;;;;;;1.70;1.43;;;18.30;34.80;;;;;;5017932;28;20292;-68
2024/04/06 06:41:00;;;;;;;1.57;1.40;;;18.40;34.20;;;;;;5023936;28;20688;-65
2024/04/06 06:43:26;;;;;;;1.63;1.53;;;18.50;35.70;;;;;;5015893;28;20223;-67
2024/04/06 06:45:52;;;;;;;1.53;1.43;;;18.60;34.80;;;;;;5024504;28;20706;-66
2024/04/06 06:48:18;;;;;;;1.77;1.40;;;18.60;34.40;;;;;;5023885;28;20203;-68
2024/04/06 06:50:44;;;;;;;2.17;1.70;;;18.80;33.70;;;;;;5028828;28;20239;-71
2024/04/06 06:53:11;;;;;;;1.50;1.40;;;18.90;33.90;;;;;;5028255;28;20226;-70
2024/04/06 06:55:37;;;;;;;2.63;1.70;;;19.00;33.70;;;;;;5019136;28;20682;-66
2024/04/06 06:58:03;;;;;;;2.50;1.50;;;19.10;33.60;;;;;;5024461;28;20210;-66
2024/04/06 07:00:29;;;;;;;1.60;1.50;;;19.30;33.90;;;;;;5028249;28;20292;-74
2024/04/06 07:02:56;;;;;;;2.43;1.43;;;19.40;34.00;;;;;;5027575;28;20315;-66
2024/04/06 07:05:22;;;;;;;2.10;1.60;;;19.50;34.10;;;;;;5027698;28;20244;-65
2024/04/06 07:07:48;;;;;;;2.93;1.60;;;19.70;32.80;;;;;;5019945;28;20608;-65
2024/04/06 07:10:14;;;;;;;4.43;1.60;;;19.80;33.10;;;;;;5013932;28;20312;-64
2024/04/06 07:12:40;;;;;;;1.73;1.43;;;19.90;33.60;;;;;;5026330;28;20317;-68
2024/04/06 07:15:06;;;;;;;1.43;1.33;;;20.10;34.70;;;;;;5031297;28;20216;-67
2024/04/06 07:17:32;;;;;;;2.97;1.57;;;20.30;32.50;;;;;;5031458;28;20206;-66
2024/04/06 07:19:58;;;;;;;2.00;1.37;;;20.40;33.70;;;;;;5026807;28;20207;-67
2024/04/06 07:22:25;;;;;;;2.13;1.50;;;20.40;33.50;;;;;;5022497;28;20224;-66
2024/04/06 07:24:50;;;;;;;3.17;1.50;;;20.50;33.20;;;;;;5026115;28;20213;-65
2024/04/06 07:27:17;;;;;;;2.73;1.87;;;20.60;32.50;;;;;;5022546;28;20205;-67
2024/04/06 07:29:43;;;;;;;1.50;1.40;;;20.70;33.90;;;;;;5014900;28;20553;-67
2024/04/06 07:32:09;;;;;;;1.87;1.30;;;21.00;33.10;;;;;;5027586;28;20308;-65
2024/04/06 07:34:37;;;;;;;3.33;1.60;;;21.10;33.30;;;;;;5023508;28;20228;-65
2024/04/06 07:37:04;;;;;;;2.65;1.52;;;21.30;35.00;;;;;;5026769;28;20209;-69
2024/04/06 07:39:30;;;;;;;1.75;1.40;;;21.40;31.80;;;;;;5019467;28;20270;-65
2024/04/06 07:41:56;;;;;;;2.17;1.35;;;21.50;30.90;;;;;;5024485;28;20326;-67
2024/04/06 07:44:22;;;;;;;1.70;1.60;;;21.70;31.50;;;;;;5023053;28;20206;-66
2024/04/06 07:46:48;;;;;;;1.40;1.30;;;21.80;30.60;;;;;;5020281;28;20216;-66
2024/04/06 07:49:14;;;;;;;2.95;1.33;;;22.00;31.50;;;;;;5029788;28;20227;-66
2024/04/06 07:51:41;;;;;;;1.38;1.27;;;21.90;30.50;;;;;;4997510;28;20317;-66
2024/04/06 07:54:07;;;;;;;1.45;1.30;;;21.90;31.30;;;;;;5009190;28;20239;-66
2024/04/06 07:56:34;;;;;;;1.63;1.52;;;21.90;29.50;;;;;;5007529;28;20202;-66
2024/04/06 07:58:59;;;;;;;2.28;1.52;;;21.90;30.60;;;;;;5007508;28;20667;-68
2024/04/06 08:01:26;;;;;;;3.20;1.48;;;22.10;31.50;;;;;;5011848;28;20293;-66
2024/04/06 08:03:52;;;;;;;1.80;1.38;;;22.20;31.60;;;;;;5017528;28;20210;-64
2024/04/06 08:06:18;;;;;;;4.57;1.70;;;22.40;30.00;;;;;;5012775;28;20205;-71
2024/04/06 08:08:44;;;;;;;2.90;1.48;;;22.50;31.00;;;;;;5015151;28;20206;-68
2024/04/06 08:11:18;;;;;;;2.60;1.60;;;22.40;31.80;;;;;;5353991;23;20209;-68
2024/04/06 08:13:44;;;;;;;3.42;1.60;;;22.50;31.50;;;;;;5017433;28;20249;-67
2024/04/06 08:16:10;;;;;;;2.72;1.58;;;22.50;30.60;;;;;;5021426;28;20653;-68
2024/04/06 08:18:36;;;;;;;1.58;1.30;;;22.60;30.10;;;;;;5030654;28;20635;-67
2024/04/06 08:21:02;;;;;;;1.60;1.40;;;22.80;31.70;;;;;;5027145;28;20260;-66
2024/04/06 08:23:28;;;;;;;4.22;1.50;;;22.90;29.60;;;;;;5017811;28;20229;-66
2024/04/06 08:25:55;;;;;;;2.83;1.40;;;23.20;28.80;;;;;;5027529;28;20300;-66
2024/04/06 08:28:20;;;;;;;2.05;1.33;;;23.50;29.00;;;;;;5026705;28;20198;-68
2024/04/06 08:30:47;;;;;;;1.73;1.20;;;23.60;29.30;;;;;;5019864;28;20616;-67
2024/04/06 08:33:12;;;;;;;1.92;1.50;;;23.80;28.60;;;;;;5029642;28;20222;-68
2024/04/06 08:35:39;;;;;;;1.75;1.20;;;24.50;27.00;;;;;;5017187;28;20206;-65
2024/04/06 08:38:05;;;;;;;3.85;1.50;;;25.70;26.30;;;;;;5020347;28;20207;-66
2024/04/06 08:40:31;;;;;;;2.35;1.65;;;26.90;25.70;;;;;;5028144;28;20198;-66
2024/04/06 08:42:58;;;;;;;1.42;1.15;;;26.60;25.30;;;;;;5021995;28;20320;-68
2024/04/06 08:45:24;;;;;;;1.60;1.50;;;25.60;26.70;;;;;;5027192;28;20213;-69
2024/04/06 08:47:50;;;;;;;1.42;1.10;;;25.00;27.20;;;;;;5024208;28;20215;-69
2024/04/06 08:50:16;;;;;;;1.98;1.20;;;24.50;27.40;;;;;;5023785;28;20229;-68
2024/04/06 08:52:43;;;;;;;1.30;1.20;;;24.40;26.50;;;;;;5031266;28;20223;-69
2024/04/06 08:55:09;;;;;;;1.83;1.20;;;24.40;28.10;;;;;;5029924;28;20217;-69
2024/04/06 08:57:35;;;;;;;1.60;1.20;;;24.30;27.90;;;;;;5015009;28;20723;-68
2024/04/06 09:00:03;;;;;;;1.67;1.00;;;24.50;27.00;;;;;;5032383;28;20221;-69
2024/04/06 09:02:29;;;;;;;2.53;1.13;;;24.30;27.00;;;;;;5022087;28;20611;-69
2024/04/06 09:04:55;;;;;;;1.35;1.15;;;24.20;27.50;;;;;;5026534;28;20293;-69
2024/04/06 09:07:21;;;;;;;1.98;1.30;;;24.30;27.70;;;;;;5029818;28;20670;-68
2024/04/06 09:09:48;;;;;;;3.10;1.27;;;24.30;26.20;;;;;;5030296;28;20314;-69
2024/04/06 09:12:13;;;;;;;1.95;1.00;;;24.20;28.30;;;;;;5022410;28;20250;-68
2024/04/06 09:14:41;;;;;;;2.60;1.33;;;24.00;27.50;;;;;;5024062;28;20202;-68
2024/04/06 09:17:07;;;;;;;1.77;1.30;;;24.10;26.60;;;;;;5028654;28;20211;-68
2024/04/06 09:22:18;;;;;;;1.95;1.10;;;24.00;28.60;;;;;;5377320;22;20353;-68
2024/04/06 09:24:44;;;;;;;1.73;1.27;;;24.10;27.00;;;;;;5010166;28;20222;-68
2024/04/06 09:27:11;;;;;;;3.45;1.30;;;24.10;26.70;;;;;;5328934;22;20536;-67
2024/04/06 09:29:37;;;;;;;2.97;1.20;;;24.20;26.00;;;;;;4999824;28;20580;-67
2024/04/06 09:32:04;;;;;;;3.13;1.10;;;24.10;26.40;;;;;;5006352;28;20278;-66
2024/04/06 09:37:15;;;;;;;1.67;1.50;;;24.30;27.50;;;;;;5007952;28;20230;-67
2024/04/06 09:39:41;;;;;;;1.20;1.10;;;24.30;26.10;;;;;;5005362;28;20212;-67
2024/04/06 09:42:07;;;;;;;2.50;1.35;;;24.20;27.00;;;;;;5007672;28;20224;-67
2024/04/06 09:44:33;;;;;;;1.98;1.40;;;24.30;26.90;;;;;;5008321;28;20214;-67
2024/04/06 09:47:00;;;;;;;1.10;1.00;;;24.30;26.40;;;;;;5014683;28;20674;-67
2024/04/06 09:49:25;;;;;;;1.20;1.10;;;24.50;26.00;;;;;;5014322;28;20225;-68
2024/04/06 09:51:52;;;;;;;2.83;1.30;;;24.40;26.30;;;;;;4984013;28;20255;-67
2024/04/06 09:54:18;;;;;;;2.17;1.55;;;24.40;25.80;;;;;;5006305;28;20215;-67
2024/04/06 09:56:45;;;;;;;1.52;1.10;;;24.30;25.40;;;;;;5003091;28;20274;-67
2024/04/06 09:59:11;;;;;;;1.83;1.20;;;24.40;26.20;;;;;;4999768;28;20207;-67
2024/04/06 10:01:37;;;;;;;1.42;1.02;;;24.30;26.00;;;;;;4992019;28;20281;-66
2024/04/06 10:04:03;;;;;;;2.33;1.13;;;24.60;25.20;;;;;;4993232;28;20211;-67
2024/04/06 10:06:30;;;;;;;2.25;1.20;;;24.50;24.60;;;;;;5010694;28;20199;-66
2024/04/06 10:08:55;;;;;;;1.35;1.20;;;24.70;25.00;;;;;;5004103;28;20211;-67
2024/04/06 10:11:22;;;;;;;1.65;1.25;;;24.70;25.30;;;;;;4999504;28;20226;-66
2024/04/06 10:13:47;;;;;;;1.42;1.20;;;24.70;25.50;;;;;;5010981;28;20211;-67
2024/04/06 10:16:14;;;;;;;1.50;1.25;;;24.60;26.20;;;;;;5009863;28;20688;-66
2024/04/06 10:18:40;;;;;;;2.45;1.55;;;24.70;24.90;;;;;;5003760;28;20567;-66
2024/04/06 10:21:06;;;;;;;1.35;1.20;;;25.50;30.00;;;;;;5011704;28;20290;-66
2024/04/06 10:23:32;;;;;;;2.00;1.27;;;25.60;31.60;;;;;;5010207;28;20603;-66
2024/04/06 10:25:58;;;;;;;1.17;1.08;;;25.60;31.30;;;;;;5012666;28;20291;-67
2024/04/06 10:28:24;;;;;;;1.17;1.00;;;25.60;30.20;;;;;;5006660;28;20211;-67
2024/04/06 10:30:51;;;;;;;1.40;1.20;;;25.40;24.20;;;;;;5008510;28;20378;-66
2024/04/06 10:33:16;;;;;;;1.83;1.73;;;25.40;29.60;;;;;;5010135;28;20234;-66
2024/04/06 10:35:43;;;;;;;1.48;1.38;;;25.50;29.70;;;;;;5017584;28;20503;-66
2024/04/06 10:38:09;;;;;;;1.33;1.20;;;25.50;29.60;;;;;;5011686;28;20207;-66
2024/04/06 10:40:37;;;;;;;2.78;1.48;;;25.50;25.70;;;;;;5003352;28;20206;-66
2024/04/06 10:43:02;;;;;;;1.50;1.40;;;25.40;26.20;;;;;;5005572;28;20227;-67
2024/04/06 10:45:29;;;;;;;1.35;1.20;;;25.30;29.50;;;;;;5008735;28;20209;-65
2024/04/06 10:47:54;;;;;;;1.30;1.10;;;25.30;26.60;;;;;;4999706;28;20207;-66
2024/04/06 10:50:21;;;;;;;1.40;1.20;;;25.30;29.50;;;;;;4998250;28;20705;-67
2024/04/06 10:52:47;;;;;;;2.97;1.30;;;25.30;29.50;;;;;;5015090;28;20238;-66
2024/04/06 10:55:19;;;;;;;3.00;1.20;;;25.50;24.70;;;;;;5006387;28;20205;-66
2024/04/06 10:57:44;;;;;;;6.53;1.40;;;25.60;26.70;;;;;;5014038;28;20261;-66
2024/04/06 11:00:11;;;;;;;1.20;1.10;;;25.30;27.80;;;;;;5010484;28;20662;-67
2024/04/06 11:02:37;;;;;;;1.25;1.15;;;25.20;23.60;;;;;;5020059;28;20310;-65
2024/04/06 11:05:03;;;;;;;2.47;1.30;;;25.20;27.10;;;;;;5015069;28;20235;-64
2024/04/06 11:07:29;;;;;;;2.28;1.30;;;25.20;27.40;;;;;;5019790;28;20214;-67
2024/04/06 11:09:56;;;;;;;1.30;1.20;;;25.30;26.90;;;;;;5004331;28;20231;-65
2024/04/06 11:12:22;;;;;;;1.20;1.10;;;25.10;27.70;;;;;;5008548;28;20230;-65
2024/04/06 11:14:48;;;;;;;1.95;1.20;;;25.40;26.70;;;;;;5004663;28;20278;-65
2024/04/06 11:17:14;;;;;;;1.58;1.10;;;25.30;26.90;;;;;;5013490;28;20210;-67
2024/04/06 11:19:41;;;;;;;1.35;1.25;;;25.20;27.80;;;;;;5011865;28;20234;-66
2024/04/06 11:22:06;;;;;;;1.30;1.20;;;25.30;26.30;;;;;;5010220;28;20224;-65
2024/04/06 11:24:33;;;;;;;1.50;1.30;;;25.10;27.60;;;;;;5001633;28;20314;-65
2024/04/06 11:26:58;;;;;;;1.70;1.30;;;24.90;27.70;;;;;;5004260;28;20583;-65
2024/04/06 11:29:25;;;;;;;1.27;1.15;;;25.00;26.50;;;;;;5006045;28;20297;-65
2024/04/06 11:31:51;;;;;;;1.40;1.30;;;24.90;26.90;;;;;;5002440;28;20251;-65
2024/04/06 11:34:17;;;;;;;0.82;0.80;;;25.20;20.80;;;;;;5007047;28;20261;-65
2024/04/06 11:36:43;;;;;;;1.40;1.30;;;25.60;19.30;;;;;;4992594;28;20244;-65
2024/04/06 11:39:11;;;;;;;2.10;1.15;;;25.60;22.80;;;;;;4995078;28;20234;-66
2024/04/06 11:41:36;;;;;;;1.73;1.17;;;25.40;20.40;;;;;;5002671;28;20237;-64
2024/04/06 11:44:04;;;;;;;0.95;0.95;;;25.20;24.50;;;;;;5009557;28;20203;-65
2024/04/06 11:46:29;;;;;;;2.05;1.30;;;25.20;24.30;;;;;;5000078;28;20708;-64
2024/04/06 11:48:56;;;;;;;1.27;1.17;;;25.40;22.60;;;;;;5000069;28;20200;-66
2024/04/06 11:51:21;;;;;;;1.08;0.98;;;25.10;24.10;;;;;;5009281;28;20254;-66
2024/04/06 11:53:48;;;;;;;1.20;1.10;;;25.10;25.00;;;;;;4991739;28;20689;-66
2024/04/06 11:56:14;;;;;;;2.33;1.17;;;25.40;23.50;;;;;;5002970;28;20301;-65
2024/04/06 11:58:40;;;;;;;2.40;1.40;;;25.40;22.40;;;;;;5009588;28;20698;-64
2024/04/06 12:01:06;;;;;;;1.48;1.13;;;25.10;24.90;;;;;;5015487;28;20199;-64
2024/04/06 12:03:32;;;;;;;0.93;0.90;;;25.40;20.10;;;;;;5019465;28;20227;-65
2024/04/06 12:05:58;;;;;;;4.43;1.05;;;25.20;23.60;;;;;;5009826;28;20238;-64
2024/04/06 12:08:24;;;;;;;5.22;4.30;;;25.00;24.30;;;;;;5003233;28;20631;-63
2024/04/06 12:10:50;;;;;;;41.80;29.38;;;24.90;24.60;;;;;;5010288;28;20227;-65
2024/04/06 12:13:17;;;;;;;230.35;170.00;;;24.90;24.50;;;;;;4987538;28;20580;-64
2024/04/06 12:15:43;;;;;;;276.83;212.07;;;25.00;26.70;;;;;;5006898;28;20207;-64
2024/04/06 12:18:10;;;;;;;226.23;161.43;;;25.10;27.90;;;;;;4995307;28;20207;-67
2024/04/06 12:20:35;;;;;;;227.07;151.93;;;25.10;26.70;;;;;;5002205;28;20222;-64
2024/04/06 12:23:03;;;;;;;30.90;19.73;;;25.00;28.00;;;;;;5003717;28;21186;-64
2024/04/06 12:25:28;;;;;;;96.40;59.33;;;25.10;21.60;;;;;;5003207;28;20203;-64
2024/04/06 12:27:55;;;;;;;42.67;26.70;;;25.00;23.70;;;;;;5003179;28;20207;-63
2024/04/06 12:30:21;;;;;;;59.72;38.33;;;25.10;24.60;;;;;;5007105;28;20223;-63
2024/04/06 12:32:47;;;;;;;60.55;39.03;;;24.90;26.20;;;;;;4997194;28;20246;-64
2024/04/06 12:35:13;;;;;;;50.10;31.75;;;24.70;26.20;;;;;;4998101;28;20207;-63
2024/04/06 12:37:40;;;;;;;39.58;24.30;;;24.80;22.60;;;;;;5004963;28;20587;-64
2024/04/06 12:40:05;;;;;;;28.27;20.25;;;25.00;24.00;;;;;;5005666;28;20212;-64
2024/04/06 12:42:32;;;;;;;28.27;18.67;;;24.90;24.80;;;;;;5003724;28;20227;-64
2024/04/06 12:44:58;;;;;;;22.75;13.38;;;24.70;25.10;;;;;;5000016;28;20207;-64
2024/04/06 12:47:24;;;;;;;10.07;5.10;;;24.80;24.20;;;;;;5004534;28;20635;-64
2024/04/06 12:49:50;;;;;;;16.85;12.05;;;24.90;21.50;;;;;;5012638;28;20371;-65
2024/04/06 12:52:16;;;;;;;8.90;6.50;;;24.70;24.10;;;;;;5002840;28;20769;-64
2024/04/06 12:54:42;;;;;;;13.93;8.73;;;24.80;22.60;;;;;;5001703;28;20204;-64